sensor_id;sensor_type;location;lat;lon;timestamp;P1;durP1;ratioP1;P2;durP2;ratioP2
21827;SDS011;11076;47.942;11.804;2023-03-01T00:00:48;27.13;;;16.30;;
21827;SDS011;11076;47.942;11.804;2023-03-01T00:05:50;27.10;;;16.40;;
21827;SDS011;11076;47.942;11.804;2023-03-01T00:11:02;23.87;;;14.80;;
21827;SDS011;11076;47.942;11.804;2023-03-01T00:16:13;31.77;;;16.10;;
21827;SDS011;11076;47.942;11.804;2023-03-01T00:21:17;31.00;;;15.63;;
21827;SDS011;11076;47.942;11.804;2023-03-01T00:26:22;27.13;;;16.33;;
21827;SDS011;11076;47.942;11.804;2023-03-01T00:31:26;28.80;;;14.67;;
21827;SDS011;11076;47.942;11.804;2023-03-01T00:36:32;28.27;;;15.03;;
21827;SDS011;11076;47.942;11.804;2023-03-01T00:41:36;25.87;;;15.30;;
21827;SDS011;11076;47.942;11.804;2023-03-01T00:46:38;22.13;;;13.83;;
21827;SDS011;11076;47.942;11.804;2023-03-01T00:51:41;21.57;;;13.33;;
21827;SDS011;11076;47.942;11.804;2023-03-01T00:56:43;22.43;;;12.97;;
21827;SDS011;11076;47.942;11.804;2023-03-01T01:01:46;23.43;;;13.20;;
21827;SDS011;11076;47.942;11.804;2023-03-01T01:06:48;23.50;;;14.20;;
21827;SDS011;11076;47.942;11.804;2023-03-01T01:11:51;26.30;;;14.47;;
21827;SDS011;11076;47.942;11.804;2023-03-01T01:16:53;23.63;;;13.17;;
21827;SDS011;11076;47.942;11.804;2023-03-01T01:21:56;26.60;;;15.57;;
21827;SDS011;11076;47.942;11.804;2023-03-01T01:26:58;28.27;;;15.90;;
21827;SDS011;11076;47.942;11.804;2023-03-01T01:32:01;30.13;;;15.43;;
21827;SDS011;11076;47.942;11.804;2023-03-01T01:37:03;25.57;;;15.47;;
21827;SDS011;11076;47.942;11.804;2023-03-01T01:42:12;29.23;;;15.60;;
21827;SDS011;11076;47.942;11.804;2023-03-01T01:47:19;23.83;;;14.47;;
21827;SDS011;11076;47.942;11.804;2023-03-01T01:52:25;29.13;;;14.13;;
21827;SDS011;11076;47.942;11.804;2023-03-01T01:57:46;24.77;;;13.60;;
21827;SDS011;11076;47.942;11.804;2023-03-01T02:03:01;25.20;;;14.20;;
21827;SDS011;11076;47.942;11.804;2023-03-01T02:08:07;23.53;;;14.63;;
21827;SDS011;11076;47.942;11.804;2023-03-01T02:13:11;27.37;;;14.33;;
21827;SDS011;11076;47.942;11.804;2023-03-01T02:18:14;23.70;;;11.87;;
21827;SDS011;11076;47.942;11.804;2023-03-01T02:23:20;25.10;;;14.57;;
21827;SDS011;11076;47.942;11.804;2023-03-01T02:33:27;24.50;;;11.73;;
21827;SDS011;11076;47.942;11.804;2023-03-01T02:38:31;25.27;;;14.13;;
21827;SDS011;11076;47.942;11.804;2023-03-01T02:43:34;25.23;;;13.87;;
21827;SDS011;11076;47.942;11.804;2023-03-01T02:48:39;28.13;;;13.10;;
21827;SDS011;11076;47.942;11.804;2023-03-01T02:54:07;21.00;;;12.50;;
21827;SDS011;11076;47.942;11.804;2023-03-01T02:59:06;23.87;;;13.63;;
21827;SDS011;11076;47.942;11.804;2023-03-01T03:04:10;25.70;;;13.93;;
21827;SDS011;11076;47.942;11.804;2023-03-01T03:09:21;24.43;;;12.97;;
21827;SDS011;11076;47.942;11.804;2023-03-01T03:14:24;20.03;;;12.43;;
21827;SDS011;11076;47.942;11.804;2023-03-01T03:19:26;26.13;;;14.33;;
21827;SDS011;11076;47.942;11.804;2023-03-01T03:24:28;21.20;;;12.13;;
21827;SDS011;11076;47.942;11.804;2023-03-01T03:29:39;28.50;;;15.60;;
21827;SDS011;11076;47.942;11.804;2023-03-01T03:34:42;24.80;;;13.87;;
21827;SDS011;11076;47.942;11.804;2023-03-01T03:39:44;22.43;;;12.97;;
21827;SDS011;11076;47.942;11.804;2023-03-01T03:44:46;22.33;;;13.23;;
21827;SDS011;11076;47.942;11.804;2023-03-01T03:49:49;26.40;;;14.37;;
21827;SDS011;11076;47.942;11.804;2023-03-01T03:54:51;20.97;;;12.27;;
21827;SDS011;11076;47.942;11.804;2023-03-01T03:59:53;23.00;;;13.40;;
21827;SDS011;11076;47.942;11.804;2023-03-01T04:04:56;24.70;;;13.90;;
21827;SDS011;11076;47.942;11.804;2023-03-01T04:09:58;21.47;;;13.73;;
21827;SDS011;11076;47.942;11.804;2023-03-01T04:15:01;19.87;;;12.77;;
21827;SDS011;11076;47.942;11.804;2023-03-01T04:20:16;19.73;;;12.10;;
21827;SDS011;11076;47.942;11.804;2023-03-01T04:25:26;23.30;;;13.07;;
21827;SDS011;11076;47.942;11.804;2023-03-01T04:30:28;23.33;;;13.67;;
21827;SDS011;11076;47.942;11.804;2023-03-01T04:35:31;22.33;;;13.80;;
21827;SDS011;11076;47.942;11.804;2023-03-01T04:40:34;16.03;;;10.17;;
21827;SDS011;11076;47.942;11.804;2023-03-01T04:45:36;14.97;;;8.93;;
21827;SDS011;11076;47.942;11.804;2023-03-01T04:50:39;25.17;;;13.87;;
21827;SDS011;11076;47.942;11.804;2023-03-01T04:55:41;23.97;;;14.57;;
21827;SDS011;11076;47.942;11.804;2023-03-01T05:00:43;24.20;;;13.33;;
21827;SDS011;11076;47.942;11.804;2023-03-01T05:05:48;26.63;;;12.87;;
21827;SDS011;11076;47.942;11.804;2023-03-01T05:10:51;24.13;;;13.07;;
21827;SDS011;11076;47.942;11.804;2023-03-01T05:15:55;25.17;;;14.73;;
21827;SDS011;11076;47.942;11.804;2023-03-01T05:21:18;31.67;;;16.33;;
21827;SDS011;11076;47.942;11.804;2023-03-01T05:26:20;25.00;;;12.97;;
21827;SDS011;11076;47.942;11.804;2023-03-01T05:31:29;27.50;;;15.03;;
21827;SDS011;11076;47.942;11.804;2023-03-01T05:36:32;62.70;;;32.77;;
21827;SDS011;11076;47.942;11.804;2023-03-01T05:41:36;29.73;;;19.03;;
21827;SDS011;11076;47.942;11.804;2023-03-01T05:46:38;36.70;;;22.60;;
21827;SDS011;11076;47.942;11.804;2023-03-01T05:51:41;27.17;;;15.07;;
21827;SDS011;11076;47.942;11.804;2023-03-01T05:56:44;31.83;;;16.57;;
21827;SDS011;11076;47.942;11.804;2023-03-01T06:01:47;28.83;;;16.70;;
21827;SDS011;11076;47.942;11.804;2023-03-01T06:06:49;31.43;;;16.33;;
21827;SDS011;11076;47.942;11.804;2023-03-01T06:11:51;33.17;;;19.83;;
21827;SDS011;11076;47.942;11.804;2023-03-01T06:16:54;31.77;;;19.43;;
21827;SDS011;11076;47.942;11.804;2023-03-01T06:21:56;28.97;;;16.67;;
21827;SDS011;11076;47.942;11.804;2023-03-01T06:26:58;27.50;;;15.77;;
21827;SDS011;11076;47.942;11.804;2023-03-01T06:32:02;28.47;;;15.93;;
21827;SDS011;11076;47.942;11.804;2023-03-01T06:37:05;26.80;;;16.23;;
21827;SDS011;11076;47.942;11.804;2023-03-01T06:42:08;35.23;;;18.37;;
21827;SDS011;11076;47.942;11.804;2023-03-01T06:47:14;31.57;;;17.57;;
21827;SDS011;11076;47.942;11.804;2023-03-01T06:52:16;24.37;;;12.77;;
21827;SDS011;11076;47.942;11.804;2023-03-01T06:57:18;26.03;;;15.03;;
21827;SDS011;11076;47.942;11.804;2023-03-01T07:02:21;33.57;;;15.70;;
21827;SDS011;11076;47.942;11.804;2023-03-01T07:07:24;27.17;;;13.63;;
21827;SDS011;11076;47.942;11.804;2023-03-01T07:12:26;24.90;;;15.33;;
21827;SDS011;11076;47.942;11.804;2023-03-01T07:17:28;25.43;;;13.80;;
21827;SDS011;11076;47.942;11.804;2023-03-01T07:22:31;29.67;;;17.70;;
21827;SDS011;11076;47.942;11.804;2023-03-01T07:27:33;26.63;;;15.57;;
21827;SDS011;11076;47.942;11.804;2023-03-01T07:32:36;18.93;;;11.13;;
21827;SDS011;11076;47.942;11.804;2023-03-01T07:37:38;27.10;;;16.47;;
21827;SDS011;11076;47.942;11.804;2023-03-01T07:42:40;26.57;;;17.07;;
21827;SDS011;11076;47.942;11.804;2023-03-01T07:47:43;35.97;;;16.60;;
21827;SDS011;11076;47.942;11.804;2023-03-01T07:52:46;26.13;;;13.87;;
21827;SDS011;11076;47.942;11.804;2023-03-01T07:57:50;28.13;;;15.10;;
21827;SDS011;11076;47.942;11.804;2023-03-01T08:02:52;28.10;;;16.93;;
21827;SDS011;11076;47.942;11.804;2023-03-01T08:07:55;26.17;;;15.53;;
21827;SDS011;11076;47.942;11.804;2023-03-01T08:12:57;27.33;;;18.33;;
21827;SDS011;11076;47.942;11.804;2023-03-01T08:17:59;28.37;;;16.17;;
21827;SDS011;11076;47.942;11.804;2023-03-01T08:23:02;26.03;;;16.00;;
21827;SDS011;11076;47.942;11.804;2023-03-01T08:28:05;28.20;;;15.73;;
21827;SDS011;11076;47.942;11.804;2023-03-01T08:33:07;21.57;;;13.57;;
21827;SDS011;11076;47.942;11.804;2023-03-01T08:38:10;23.03;;;14.10;;
21827;SDS011;11076;47.942;11.804;2023-03-01T08:43:12;27.03;;;16.63;;
21827;SDS011;11076;47.942;11.804;2023-03-01T08:48:14;27.17;;;15.67;;
21827;SDS011;11076;47.942;11.804;2023-03-01T08:53:17;28.50;;;16.43;;
21827;SDS011;11076;47.942;11.804;2023-03-01T08:58:19;25.53;;;15.53;;
21827;SDS011;11076;47.942;11.804;2023-03-01T09:03:22;28.50;;;15.37;;
21827;SDS011;11076;47.942;11.804;2023-03-01T09:08:25;24.10;;;14.30;;
21827;SDS011;11076;47.942;11.804;2023-03-01T09:13:28;31.73;;;18.40;;
21827;SDS011;11076;47.942;11.804;2023-03-01T09:18:33;29.20;;;16.50;;
21827;SDS011;11076;47.942;11.804;2023-03-01T09:23:40;30.87;;;18.30;;
21827;SDS011;11076;47.942;11.804;2023-03-01T09:28:45;30.77;;;18.97;;
21827;SDS011;11076;47.942;11.804;2023-03-01T09:33:48;26.13;;;17.40;;
21827;SDS011;11076;47.942;11.804;2023-03-01T09:38:52;35.80;;;21.93;;
21827;SDS011;11076;47.942;11.804;2023-03-01T09:44:43;32.50;;;19.07;;
21827;SDS011;11076;47.942;11.804;2023-03-01T09:49:35;32.40;;;19.07;;
21827;SDS011;11076;47.942;11.804;2023-03-01T09:54:43;31.53;;;21.40;;
21827;SDS011;11076;47.942;11.804;2023-03-01T10:05:24;26.70;;;15.60;;
21827;SDS011;11076;47.942;11.804;2023-03-01T10:10:40;29.40;;;19.70;;
21827;SDS011;11076;47.942;11.804;2023-03-01T10:16:04;37.30;;;18.27;;
21827;SDS011;11076;47.942;11.804;2023-03-01T10:21:19;36.37;;;20.63;;
21827;SDS011;11076;47.942;11.804;2023-03-01T10:26:27;34.17;;;20.20;;
21827;SDS011;11076;47.942;11.804;2023-03-01T10:36:50;29.47;;;17.87;;
21827;SDS011;11076;47.942;11.804;2023-03-01T10:46:59;31.57;;;18.97;;
21827;SDS011;11076;47.942;11.804;2023-03-01T10:52:19;31.60;;;20.13;;
21827;SDS011;11076;47.942;11.804;2023-03-01T10:57:44;31.00;;;18.27;;
21827;SDS011;11076;47.942;11.804;2023-03-01T11:08:01;29.10;;;17.57;;
21827;SDS011;11076;47.942;11.804;2023-03-01T11:13:06;25.87;;;16.03;;
21827;SDS011;11076;47.942;11.804;2023-03-01T11:18:21;27.10;;;16.67;;
21827;SDS011;11076;47.942;11.804;2023-03-01T11:23:34;26.00;;;15.37;;
21827;SDS011;11076;47.942;11.804;2023-03-01T11:28:51;27.00;;;16.23;;
21827;SDS011;11076;47.942;11.804;2023-03-01T11:34:08;25.57;;;16.20;;
21827;SDS011;11076;47.942;11.804;2023-03-01T11:44:48;22.17;;;14.60;;
21827;SDS011;11076;47.942;11.804;2023-03-01T11:50:05;26.90;;;15.80;;
21827;SDS011;11076;47.942;11.804;2023-03-01T12:17:23;29.57;;;17.20;;
21827;SDS011;11076;47.942;11.804;2023-03-01T12:33:53;27.27;;;18.27;;
21827;SDS011;11076;47.942;11.804;2023-03-01T12:44:47;29.67;;;18.60;;
21827;SDS011;11076;47.942;11.804;2023-03-01T12:50:21;25.37;;;16.27;;
21827;SDS011;11076;47.942;11.804;2023-03-01T13:11:20;28.77;;;20.00;;
21827;SDS011;11076;47.942;11.804;2023-03-01T13:21:30;25.27;;;16.80;;
21827;SDS011;11076;47.942;11.804;2023-03-01T13:26:39;24.63;;;14.67;;
21827;SDS011;11076;47.942;11.804;2023-03-01T13:32:09;30.40;;;18.43;;
21827;SDS011;11076;47.942;11.804;2023-03-01T13:37:38;32.07;;;18.13;;
21827;SDS011;11076;47.942;11.804;2023-03-01T13:42:41;29.73;;;18.00;;
21827;SDS011;11076;47.942;11.804;2023-03-01T13:47:58;29.03;;;18.23;;
21827;SDS011;11076;47.942;11.804;2023-03-01T13:53:04;29.13;;;19.70;;
21827;SDS011;11076;47.942;11.804;2023-03-01T13:58:16;32.23;;;18.87;;
21827;SDS011;11076;47.942;11.804;2023-03-01T14:03:24;32.27;;;17.30;;
21827;SDS011;11076;47.942;11.804;2023-03-01T14:08:27;27.43;;;17.07;;
21827;SDS011;11076;47.942;11.804;2023-03-01T14:24:14;33.10;;;20.07;;
21827;SDS011;11076;47.942;11.804;2023-03-01T14:29:23;28.60;;;18.97;;
21827;SDS011;11076;47.942;11.804;2023-03-01T14:34:44;32.90;;;19.30;;
21827;SDS011;11076;47.942;11.804;2023-03-01T14:39:49;32.47;;;19.13;;
21827;SDS011;11076;47.942;11.804;2023-03-01T14:44:52;29.43;;;18.07;;
21827;SDS011;11076;47.942;11.804;2023-03-01T14:55:27;32.67;;;18.03;;
21827;SDS011;11076;47.942;11.804;2023-03-01T15:00:33;31.43;;;19.63;;
21827;SDS011;11076;47.942;11.804;2023-03-01T15:05:36;32.63;;;19.77;;
21827;SDS011;11076;47.942;11.804;2023-03-01T15:10:40;31.67;;;19.90;;
21827;SDS011;11076;47.942;11.804;2023-03-01T15:15:45;34.73;;;19.27;;
21827;SDS011;11076;47.942;11.804;2023-03-01T15:20:49;35.97;;;20.13;;
21827;SDS011;11076;47.942;11.804;2023-03-01T15:25:53;33.57;;;18.97;;
21827;SDS011;11076;47.942;11.804;2023-03-01T15:31:18;39.47;;;21.80;;
21827;SDS011;11076;47.942;11.804;2023-03-01T15:41:37;144.27;;;83.27;;
21827;SDS011;11076;47.942;11.804;2023-03-01T15:46:48;41.00;;;25.47;;
21827;SDS011;11076;47.942;11.804;2023-03-01T15:51:51;79.10;;;38.67;;
21827;SDS011;11076;47.942;11.804;2023-03-01T15:56:57;35.30;;;20.97;;
21827;SDS011;11076;47.942;11.804;2023-03-01T16:01:59;32.97;;;19.27;;
21827;SDS011;11076;47.942;11.804;2023-03-01T16:07:01;38.87;;;20.10;;
21827;SDS011;11076;47.942;11.804;2023-03-01T16:12:05;33.43;;;19.03;;
21827;SDS011;11076;47.942;11.804;2023-03-01T16:17:08;31.27;;;18.20;;
21827;SDS011;11076;47.942;11.804;2023-03-01T16:22:12;33.47;;;19.00;;
21827;SDS011;11076;47.942;11.804;2023-03-01T16:27:14;54.90;;;26.00;;
21827;SDS011;11076;47.942;11.804;2023-03-01T16:32:17;29.00;;;16.93;;
21827;SDS011;11076;47.942;11.804;2023-03-01T16:37:19;38.37;;;20.00;;
21827;SDS011;11076;47.942;11.804;2023-03-01T16:42:23;31.77;;;19.07;;
21827;SDS011;11076;47.942;11.804;2023-03-01T16:47:26;29.70;;;16.53;;
21827;SDS011;11076;47.942;11.804;2023-03-01T16:52:28;33.40;;;18.00;;
21827;SDS011;11076;47.942;11.804;2023-03-01T16:57:30;37.20;;;17.10;;
21827;SDS011;11076;47.942;11.804;2023-03-01T17:02:35;42.13;;;19.23;;
21827;SDS011;11076;47.942;11.804;2023-03-01T17:07:37;35.83;;;19.13;;
21827;SDS011;11076;47.942;11.804;2023-03-01T17:12:40;34.93;;;18.13;;
21827;SDS011;11076;47.942;11.804;2023-03-01T17:17:42;35.20;;;18.13;;
21827;SDS011;11076;47.942;11.804;2023-03-01T17:22:45;34.07;;;17.50;;
21827;SDS011;11076;47.942;11.804;2023-03-01T17:27:47;33.87;;;18.07;;
21827;SDS011;11076;47.942;11.804;2023-03-01T17:32:50;33.83;;;18.87;;
21827;SDS011;11076;47.942;11.804;2023-03-01T17:37:56;37.77;;;19.50;;
21827;SDS011;11076;47.942;11.804;2023-03-01T17:42:58;38.73;;;20.27;;
21827;SDS011;11076;47.942;11.804;2023-03-01T17:48:01;36.50;;;19.63;;
21827;SDS011;11076;47.942;11.804;2023-03-01T17:53:03;37.60;;;19.63;;
21827;SDS011;11076;47.942;11.804;2023-03-01T17:58:11;45.97;;;22.47;;
21827;SDS011;11076;47.942;11.804;2023-03-01T18:03:14;38.50;;;20.57;;
21827;SDS011;11076;47.942;11.804;2023-03-01T18:08:17;45.37;;;22.17;;
21827;SDS011;11076;47.942;11.804;2023-03-01T18:13:20;42.37;;;22.13;;
21827;SDS011;11076;47.942;11.804;2023-03-01T18:18:22;52.77;;;25.57;;
21827;SDS011;11076;47.942;11.804;2023-03-01T18:23:25;55.17;;;27.20;;
21827;SDS011;11076;47.942;11.804;2023-03-01T18:28:28;48.23;;;24.10;;
21827;SDS011;11076;47.942;11.804;2023-03-01T18:33:32;68.43;;;35.10;;
21827;SDS011;11076;47.942;11.804;2023-03-01T18:38:34;46.80;;;25.13;;
21827;SDS011;11076;47.942;11.804;2023-03-01T18:43:36;51.40;;;26.27;;
21827;SDS011;11076;47.942;11.804;2023-03-01T18:48:39;68.40;;;28.93;;
21827;SDS011;11076;47.942;11.804;2023-03-01T18:53:41;51.73;;;25.33;;
21827;SDS011;11076;47.942;11.804;2023-03-01T18:58:44;56.97;;;29.50;;
21827;SDS011;11076;47.942;11.804;2023-03-01T19:03:47;52.70;;;25.70;;
21827;SDS011;11076;47.942;11.804;2023-03-01T19:08:51;55.40;;;25.13;;
21827;SDS011;11076;47.942;11.804;2023-03-01T19:13:54;58.10;;;28.00;;
21827;SDS011;11076;47.942;11.804;2023-03-01T19:18:57;67.77;;;26.47;;
21827;SDS011;11076;47.942;11.804;2023-03-01T19:24:01;51.20;;;24.43;;
21827;SDS011;11076;47.942;11.804;2023-03-01T19:29:03;54.40;;;25.93;;
21827;SDS011;11076;47.942;11.804;2023-03-01T19:34:07;69.20;;;31.30;;
21827;SDS011;11076;47.942;11.804;2023-03-01T19:39:12;59.50;;;29.27;;
21827;SDS011;11076;47.942;11.804;2023-03-01T19:44:15;72.63;;;33.60;;
21827;SDS011;11076;47.942;11.804;2023-03-01T19:49:17;74.57;;;33.33;;
21827;SDS011;11076;47.942;11.804;2023-03-01T19:54:20;62.27;;;29.47;;
21827;SDS011;11076;47.942;11.804;2023-03-01T19:59:23;55.37;;;29.10;;
21827;SDS011;11076;47.942;11.804;2023-03-01T20:04:26;57.83;;;26.73;;
21827;SDS011;11076;47.942;11.804;2023-03-01T20:09:28;63.67;;;26.30;;
21827;SDS011;11076;47.942;11.804;2023-03-01T20:14:31;57.40;;;27.83;;
21827;SDS011;11076;47.942;11.804;2023-03-01T20:19:33;53.47;;;27.40;;
21827;SDS011;11076;47.942;11.804;2023-03-01T20:24:35;54.00;;;25.67;;
21827;SDS011;11076;47.942;11.804;2023-03-01T20:29:38;53.50;;;28.27;;
21827;SDS011;11076;47.942;11.804;2023-03-01T20:34:40;52.20;;;25.60;;
21827;SDS011;11076;47.942;11.804;2023-03-01T20:39:42;48.23;;;24.60;;
21827;SDS011;11076;47.942;11.804;2023-03-01T20:44:45;61.67;;;26.03;;
21827;SDS011;11076;47.942;11.804;2023-03-01T20:49:50;60.97;;;25.67;;
21827;SDS011;11076;47.942;11.804;2023-03-01T20:54:53;58.33;;;28.33;;
21827;SDS011;11076;47.942;11.804;2023-03-01T20:59:55;50.93;;;23.70;;
21827;SDS011;11076;47.942;11.804;2023-03-01T21:04:57;51.17;;;24.03;;
21827;SDS011;11076;47.942;11.804;2023-03-01T21:10:00;48.73;;;24.03;;
21827;SDS011;11076;47.942;11.804;2023-03-01T21:15:02;54.33;;;24.77;;
21827;SDS011;11076;47.942;11.804;2023-03-01T21:20:06;60.50;;;30.63;;
21827;SDS011;11076;47.942;11.804;2023-03-01T21:25:08;59.93;;;26.43;;
21827;SDS011;11076;47.942;11.804;2023-03-01T21:30:11;47.40;;;23.50;;
21827;SDS011;11076;47.942;11.804;2023-03-01T21:35:14;46.27;;;24.37;;
21827;SDS011;11076;47.942;11.804;2023-03-01T21:40:16;47.07;;;23.70;;
21827;SDS011;11076;47.942;11.804;2023-03-01T21:45:18;41.77;;;23.37;;
21827;SDS011;11076;47.942;11.804;2023-03-01T21:50:21;42.77;;;22.83;;
21827;SDS011;11076;47.942;11.804;2023-03-01T21:55:23;40.80;;;22.63;;
21827;SDS011;11076;47.942;11.804;2023-03-01T22:00:25;43.50;;;22.37;;
21827;SDS011;11076;47.942;11.804;2023-03-01T22:05:28;48.63;;;22.80;;
21827;SDS011;11076;47.942;11.804;2023-03-01T22:10:31;36.07;;;20.40;;
21827;SDS011;11076;47.942;11.804;2023-03-01T22:15:33;41.57;;;20.57;;
21827;SDS011;11076;47.942;11.804;2023-03-01T22:20:36;38.60;;;18.03;;
21827;SDS011;11076;47.942;11.804;2023-03-01T22:25:39;41.47;;;18.80;;
21827;SDS011;11076;47.942;11.804;2023-03-01T22:30:43;39.97;;;19.63;;
21827;SDS011;11076;47.942;11.804;2023-03-01T22:35:45;42.40;;;20.87;;
21827;SDS011;11076;47.942;11.804;2023-03-01T22:40:54;37.00;;;20.47;;
21827;SDS011;11076;47.942;11.804;2023-03-01T22:45:58;45.50;;;22.07;;
21827;SDS011;11076;47.942;11.804;2023-03-01T22:51:00;35.17;;;17.20;;
21827;SDS011;11076;47.942;11.804;2023-03-01T22:56:13;40.73;;;22.07;;
21827;SDS011;11076;47.942;11.804;2023-03-01T23:01:18;42.10;;;20.43;;
21827;SDS011;11076;47.942;11.804;2023-03-01T23:06:23;43.47;;;22.87;;
21827;SDS011;11076;47.942;11.804;2023-03-01T23:11:26;31.17;;;16.03;;
21827;SDS011;11076;47.942;11.804;2023-03-01T23:16:30;49.57;;;22.33;;
21827;SDS011;11076;47.942;11.804;2023-03-01T23:21:33;34.73;;;17.13;;
21827;SDS011;11076;47.942;11.804;2023-03-01T23:26:35;39.27;;;20.03;;
21827;SDS011;11076;47.942;11.804;2023-03-01T23:31:41;42.20;;;21.47;;
21827;SDS011;11076;47.942;11.804;2023-03-01T23:36:43;39.00;;;19.93;;
21827;SDS011;11076;47.942;11.804;2023-03-01T23:41:46;38.47;;;19.17;;
21827;SDS011;11076;47.942;11.804;2023-03-01T23:46:49;41.67;;;22.67;;
21827;SDS011;11076;47.942;11.804;2023-03-01T23:51:51;34.90;;;19.37;;
21827;SDS011;11076;47.942;11.804;2023-03-01T23:56:54;41.00;;;20.30;;
